createdAt,value
2019-01-11T00:00:10.195Z,1018.02
2019-01-11T00:01:10.212Z,1018.02
2019-01-11T00:02:10.236Z,1018.03
2019-01-11T00:03:10.257Z,1017.98
2019-01-11T00:04:10.277Z,1018.07
2019-01-11T00:05:10.299Z,1018.00
2019-01-11T00:06:10.320Z,1017.97
2019-01-11T00:07:10.340Z,1017.99
2019-01-11T00:08:10.362Z,1017.95
2019-01-11T00:09:10.381Z,1017.92
2019-01-11T00:10:10.405Z,1017.91
2019-01-11T00:11:10.423Z,1017.95
2019-01-11T00:12:10.444Z,1017.91
2019-01-11T00:13:10.468Z,1017.89
2019-01-11T00:14:10.486Z,1017.94
2019-01-11T00:15:10.509Z,1017.90
2019-01-11T00:16:10.528Z,1017.83
2019-01-11T00:17:10.552Z,1017.87
2019-01-11T00:18:10.572Z,1017.86
2019-01-11T00:19:10.592Z,1017.80
2019-01-11T00:20:10.612Z,1017.76
2019-01-11T00:21:10.634Z,1017.79
2019-01-11T00:22:10.658Z,1017.81
2019-01-11T00:23:11.021Z,1017.83
2019-01-11T00:24:10.699Z,1017.78
2019-01-11T00:25:10.721Z,1017.82
2019-01-11T00:26:10.743Z,1017.77
2019-01-11T00:27:10.761Z,1017.78
2019-01-11T00:28:10.785Z,1017.74
2019-01-11T00:29:10.825Z,1017.75
2019-01-11T00:30:10.827Z,1017.74
2019-01-11T00:31:10.845Z,1017.72
2019-01-11T00:32:10.869Z,1017.76
2019-01-11T00:33:10.891Z,1017.77
2019-01-11T00:34:10.910Z,1017.67
2019-01-11T00:35:10.940Z,1017.68
2019-01-11T00:36:10.953Z,1017.67
2019-01-11T00:37:10.977Z,1017.67
2019-01-11T00:38:10.997Z,1017.64
2019-01-11T00:39:11.017Z,1017.59
2019-01-11T00:40:11.038Z,1017.61
2019-01-11T00:41:11.057Z,1017.58
2019-01-11T00:42:11.079Z,1017.63
2019-01-11T00:43:15.015Z,1017.62
2019-01-11T00:44:11.120Z,1017.59
2019-01-11T00:45:11.146Z,1017.62
2019-01-11T00:46:11.165Z,1017.56
2019-01-11T00:47:11.185Z,1017.57
2019-01-11T00:48:11.207Z,1017.54
2019-01-11T00:49:13.617Z,1017.60
2019-01-11T00:50:11.248Z,1017.55
2019-01-11T00:51:11.270Z,1017.58
2019-01-11T00:52:11.290Z,1017.55
2019-01-11T00:53:11.310Z,1017.55
2019-01-11T00:54:11.584Z,1017.53
2019-01-11T00:55:11.352Z,1017.56
2019-01-11T00:56:11.375Z,1017.54
2019-01-11T00:57:11.394Z,1017.54
2019-01-11T00:58:11.416Z,1017.57
2019-01-11T00:59:11.437Z,1017.49
2019-01-11T01:00:11.470Z,1017.50
2019-01-11T01:01:11.479Z,1017.51
2019-01-11T01:02:11.503Z,1017.51
2019-01-11T01:03:11.523Z,1017.49
2019-01-11T01:04:11.542Z,1017.52
2019-01-11T01:05:11.563Z,1017.60
2019-01-11T01:06:11.587Z,1017.46
2019-01-11T01:07:11.604Z,1017.46
2019-01-11T01:08:11.626Z,1017.54
2019-01-11T01:09:11.649Z,1017.48
2019-01-11T01:10:11.669Z,1017.53
2019-01-11T01:11:11.690Z,1017.47
2019-01-11T01:12:11.713Z,1017.43
2019-01-11T01:13:11.746Z,1017.44
2019-01-11T01:14:11.754Z,1017.42
2019-01-11T01:15:11.776Z,1017.45
2019-01-11T01:16:11.799Z,1017.45
2019-01-11T01:17:11.815Z,1017.45
2019-01-11T01:18:11.838Z,1017.50
2019-01-11T01:19:11.859Z,1017.47
2019-01-11T01:20:11.879Z,1017.41
2019-01-11T01:21:11.904Z,1017.44
2019-01-11T01:22:11.932Z,1017.43
2019-01-11T01:23:11.943Z,1017.44
2019-01-11T01:24:11.964Z,1017.43
2019-01-11T01:25:12.025Z,1017.41
2019-01-11T01:26:12.006Z,1017.35
2019-01-11T01:27:12.027Z,1017.36
2019-01-11T01:28:12.048Z,1017.33
2019-01-11T01:29:12.068Z,1017.36
2019-01-11T01:30:12.093Z,1017.33
2019-01-11T01:31:12.111Z,1017.30
2019-01-11T01:32:12.133Z,1017.38
2019-01-11T01:33:12.154Z,1017.37
2019-01-11T01:34:12.175Z,1017.33
2019-01-11T01:35:12.198Z,1017.33
2019-01-11T01:36:12.220Z,1017.27
2019-01-11T01:37:12.239Z,1017.29
2019-01-11T01:38:12.260Z,1017.27
2019-01-11T01:39:12.281Z,1017.30
2019-01-11T01:40:12.299Z,1017.30
2019-01-11T01:41:12.324Z,1017.29
2019-01-11T01:42:12.351Z,1017.28
2019-01-11T01:43:12.365Z,1017.28
2019-01-11T01:44:12.392Z,1017.21
2019-01-11T01:45:12.406Z,1017.22
2019-01-11T01:46:12.432Z,1017.21
2019-01-11T01:47:12.451Z,1017.20
2019-01-11T01:48:12.471Z,1017.24
2019-01-11T01:49:12.497Z,1017.11
2019-01-11T01:50:12.514Z,1017.16
2019-01-11T01:51:12.533Z,1017.18
2019-01-11T01:52:12.553Z,1017.14
2019-01-11T01:53:12.578Z,1017.08
2019-01-11T01:54:12.595Z,1017.13
2019-01-11T01:55:12.625Z,1017.06
2019-01-11T01:56:12.639Z,1017.07
2019-01-11T01:57:12.660Z,1017.03
2019-01-11T01:58:12.678Z,1017.07
2019-01-11T01:59:12.703Z,1016.97
2019-01-11T02:00:12.723Z,1017.02
2019-01-11T02:01:12.741Z,1017.01
2019-01-11T02:02:12.766Z,1016.99
2019-01-11T02:03:12.792Z,1017.06
2019-01-11T02:04:12.804Z,1017.02
2019-01-11T02:05:12.828Z,1017.03
2019-01-11T02:06:12.852Z,1017.03
2019-01-11T02:07:12.870Z,1016.99
2019-01-11T02:08:12.892Z,1017.02
2019-01-11T02:09:12.919Z,1016.98
2019-01-11T02:10:12.932Z,1017.00
2019-01-11T02:11:12.956Z,1016.98
2019-01-11T02:12:12.976Z,1016.96
2019-01-11T02:13:12.997Z,1016.94
2019-01-11T02:14:13.019Z,1016.96
2019-01-11T02:15:13.039Z,1016.89
2019-01-11T02:16:13.058Z,1016.96
2019-01-11T02:17:13.081Z,1016.88
2019-01-11T02:18:13.103Z,1016.85
2019-01-11T02:19:13.124Z,1016.87
2019-01-11T02:20:13.145Z,1016.88
2019-01-11T02:21:13.166Z,1016.84
2019-01-11T02:22:13.187Z,1016.77
2019-01-11T02:23:13.207Z,1016.80
2019-01-11T02:24:13.227Z,1016.75
2019-01-11T02:25:13.252Z,1016.79
2019-01-11T02:26:13.268Z,1016.72
2019-01-11T02:27:13.292Z,1016.74
2019-01-11T02:28:13.311Z,1016.76
2019-01-11T02:29:13.332Z,1016.77
2019-01-11T02:30:13.359Z,1016.79
2019-01-11T02:31:13.377Z,1016.69
2019-01-11T02:32:13.396Z,1016.69
2019-01-11T02:33:13.417Z,1016.74
2019-01-11T02:34:13.442Z,1016.69
2019-01-11T02:35:13.462Z,1016.69
2019-01-11T02:36:13.482Z,1016.73
2019-01-11T02:37:13.611Z,1016.69
2019-01-11T02:38:13.525Z,1016.70
2019-01-11T02:39:13.546Z,1016.67
2019-01-11T02:40:13.565Z,1016.66
2019-01-11T02:41:13.585Z,1016.69
2019-01-11T02:42:13.608Z,1016.67
2019-01-11T02:43:13.681Z,1016.71
2019-01-11T02:44:13.653Z,1016.70
2019-01-11T02:45:13.672Z,1016.72
2019-01-11T02:46:13.700Z,1016.75
2019-01-11T02:47:13.712Z,1016.72
2019-01-11T02:48:13.736Z,1016.74
2019-01-11T02:49:13.758Z,1016.69
2019-01-11T02:50:13.777Z,1016.72
2019-01-11T02:51:13.799Z,1016.66
2019-01-11T02:52:13.827Z,1016.69
2019-01-11T02:53:13.853Z,1016.60
2019-01-11T02:54:13.867Z,1016.60
2019-01-11T02:55:13.883Z,1016.64
2019-01-11T02:56:13.902Z,1016.66
2019-01-11T02:57:13.926Z,1016.64
2019-01-11T02:58:13.946Z,1016.67
2019-01-11T02:59:13.966Z,1016.59
2019-01-11T03:00:13.990Z,1016.65
2019-01-11T03:01:14.013Z,1016.64
2019-01-11T03:02:14.034Z,1016.58
2019-01-11T03:03:14.059Z,1016.57
2019-01-11T03:04:14.074Z,1016.51
2019-01-11T03:05:14.096Z,1016.53
2019-01-11T03:06:14.118Z,1016.52
2019-01-11T03:07:14.138Z,1016.52
2019-01-11T03:08:14.158Z,1016.47
2019-01-11T03:09:14.178Z,1016.51
2019-01-11T03:10:14.203Z,1016.43
2019-01-11T03:11:14.221Z,1016.37
2019-01-11T03:12:14.242Z,1016.45
2019-01-11T03:13:14.265Z,1016.37
2019-01-11T03:14:14.283Z,1016.41
2019-01-11T03:15:14.305Z,1016.38
2019-01-11T03:16:14.328Z,1016.33
2019-01-11T03:17:14.349Z,1016.33
2019-01-11T03:18:14.373Z,1016.32
2019-01-11T03:19:14.396Z,1016.30
2019-01-11T03:20:14.413Z,1016.31
2019-01-11T03:21:14.432Z,1016.35
2019-01-11T03:22:14.457Z,1016.33
2019-01-11T03:23:14.473Z,1016.28
2019-01-11T03:24:14.495Z,1016.29
2019-01-11T03:25:14.518Z,1016.27
2019-01-11T03:26:14.538Z,1016.24
2019-01-11T03:27:14.561Z,1016.24
2019-01-11T03:28:14.583Z,1016.24
2019-01-11T03:29:14.604Z,1016.27
2019-01-11T03:30:14.626Z,1016.24
2019-01-11T03:31:14.658Z,1016.22
2019-01-11T03:32:14.667Z,1016.19
2019-01-11T03:33:14.690Z,1016.22
2019-01-11T03:34:14.716Z,1016.29
2019-01-11T03:35:14.733Z,1016.27
2019-01-11T03:36:14.754Z,1016.21
2019-01-11T03:37:14.771Z,1016.20
2019-01-11T03:38:14.792Z,1016.25
2019-01-11T03:39:14.813Z,1016.18
2019-01-11T03:40:14.836Z,1016.24
2019-01-11T03:41:14.856Z,1016.18
2019-01-11T03:42:14.880Z,1016.23
2019-01-11T03:43:14.901Z,1016.21
2019-01-11T03:44:14.920Z,1016.17
2019-01-11T03:45:14.941Z,1016.18
2019-01-11T03:46:14.966Z,1016.20
2019-01-11T03:47:14.984Z,1016.13
2019-01-11T03:48:15.007Z,1016.12
2019-01-11T03:49:15.027Z,1016.11
2019-01-11T03:50:15.058Z,1016.13
2019-01-11T03:51:15.071Z,1016.14
2019-01-11T03:52:15.089Z,1016.08
2019-01-11T03:53:15.111Z,1016.13
2019-01-11T03:54:15.131Z,1016.09
2019-01-11T03:55:15.158Z,1016.15
2019-01-11T03:56:15.182Z,1016.08
2019-01-11T03:57:15.195Z,1016.12
2019-01-11T03:58:15.217Z,1016.09
2019-01-11T03:59:15.236Z,1016.14
2019-01-11T04:00:15.257Z,1016.06
2019-01-11T04:01:15.284Z,1016.13
2019-01-11T04:02:15.303Z,1016.16
2019-01-11T04:03:15.323Z,1016.11
2019-01-11T04:04:15.362Z,1016.13
2019-01-11T04:05:15.369Z,1016.18
2019-01-11T04:06:15.387Z,1016.19
2019-01-11T04:07:15.406Z,1016.20
2019-01-11T04:08:15.427Z,1016.22
2019-01-11T04:09:15.451Z,1016.16
2019-01-11T04:10:15.470Z,1016.05
2019-01-11T04:11:15.492Z,1016.02
2019-01-11T04:12:15.515Z,1015.92
2019-01-11T04:13:15.533Z,1015.88
2019-01-11T04:14:15.557Z,1015.90
2019-01-11T04:15:15.575Z,1015.97
2019-01-11T04:16:15.598Z,1015.95
2019-01-11T04:17:15.621Z,1016.04
2019-01-11T04:18:15.643Z,1016.00
2019-01-11T04:19:15.660Z,1016.08
2019-01-11T04:20:15.689Z,1016.05
2019-01-11T04:21:15.706Z,1016.00
2019-01-11T04:22:15.725Z,1016.04
2019-01-11T04:23:15.747Z,1016.04
2019-01-11T04:24:15.771Z,1016.02
2019-01-11T04:25:15.791Z,1016.01
2019-01-11T04:26:15.814Z,1015.96
2019-01-11T04:27:15.833Z,1015.93
2019-01-11T04:28:15.854Z,1015.97
2019-01-11T04:29:15.876Z,1015.91
2019-01-11T04:30:15.900Z,1015.94
2019-01-11T04:31:15.915Z,1015.91
2019-01-11T04:32:15.949Z,1015.86
2019-01-11T04:33:15.958Z,1015.89
2019-01-11T04:34:15.985Z,1015.92
2019-01-11T04:35:16.004Z,1015.89
2019-01-11T04:36:16.025Z,1015.93
2019-01-11T04:37:16.052Z,1015.97
2019-01-11T04:38:16.068Z,1015.95
2019-01-11T04:39:16.088Z,1015.97
2019-01-11T04:40:16.116Z,1015.97
2019-01-11T04:41:16.132Z,1015.97
2019-01-11T04:42:16.151Z,1015.95
2019-01-11T04:43:16.173Z,1015.92
2019-01-11T04:44:16.196Z,1015.94
2019-01-11T04:45:16.223Z,1016.00
2019-01-11T04:46:16.239Z,1015.96
2019-01-11T04:47:16.259Z,1015.95
2019-01-11T04:48:16.280Z,1015.98
2019-01-11T04:49:16.302Z,1015.92
2019-01-11T04:50:16.338Z,1015.93
2019-01-11T04:51:16.342Z,1015.92
2019-01-11T04:52:16.367Z,1015.93
2019-01-11T04:53:16.384Z,1015.85
2019-01-11T04:54:16.410Z,1015.86
2019-01-11T04:55:16.435Z,1015.87
2019-01-11T04:56:16.451Z,1015.84
2019-01-11T04:57:16.473Z,1015.92
2019-01-11T04:58:16.494Z,1015.88
2019-01-11T04:59:16.514Z,1015.87
2019-01-11T05:00:16.537Z,1015.85
2019-01-11T05:01:16.558Z,1015.83
2019-01-11T05:02:16.580Z,1015.82
2019-01-11T05:03:16.600Z,1015.80
2019-01-11T05:04:16.620Z,1015.83
2019-01-11T05:05:16.645Z,1015.77
2019-01-11T05:06:16.670Z,1015.76
2019-01-11T05:07:16.683Z,1015.76
2019-01-11T05:08:16.708Z,1015.78
2019-01-11T05:09:16.729Z,1015.73
2019-01-11T05:10:16.751Z,1015.77
2019-01-11T05:11:16.770Z,1015.78
2019-01-11T05:12:16.794Z,1015.78
2019-01-11T05:13:16.815Z,1015.69
2019-01-11T05:14:16.836Z,1015.71
2019-01-11T05:15:16.860Z,1015.67
2019-01-11T05:16:16.877Z,1015.70
2019-01-11T05:17:16.899Z,1015.73
2019-01-11T05:18:16.920Z,1015.71
2019-01-11T05:19:16.943Z,1015.68
2019-01-11T05:20:17.356Z,1015.70
2019-01-11T05:21:16.984Z,1015.68
2019-01-11T05:22:17.009Z,1015.65
2019-01-11T05:23:17.026Z,1015.69
2019-01-11T05:24:17.047Z,1015.69
2019-01-11T05:25:17.070Z,1015.66
2019-01-11T05:26:17.094Z,1015.66
2019-01-11T05:27:17.114Z,1015.65
2019-01-11T05:28:17.137Z,1015.65
2019-01-11T05:29:17.155Z,1015.62
2019-01-11T05:30:17.180Z,1015.64
2019-01-11T05:31:17.201Z,1015.59
2019-01-11T05:32:17.223Z,1015.55
2019-01-11T05:33:17.241Z,1015.63
2019-01-11T05:34:17.263Z,1015.63
2019-01-11T05:35:17.292Z,1015.57
2019-01-11T05:36:17.306Z,1015.58
2019-01-11T05:37:17.328Z,1015.61
2019-01-11T05:38:17.351Z,1015.58
2019-01-11T05:39:17.370Z,1015.56
2019-01-11T05:40:17.392Z,1015.55
2019-01-11T05:41:17.415Z,1015.52
2019-01-11T05:42:17.435Z,1015.52
2019-01-11T05:43:17.460Z,1015.56
2019-01-11T05:44:17.479Z,1015.53
2019-01-11T05:45:17.502Z,1015.54
2019-01-11T05:46:17.524Z,1015.54
2019-01-11T05:47:17.543Z,1015.54
2019-01-11T05:48:17.572Z,1015.49
2019-01-11T05:49:17.591Z,1015.54
2019-01-11T05:50:23.884Z,1015.53
2019-01-11T05:51:17.632Z,1015.52
2019-01-11T05:52:17.653Z,1015.53
2019-01-11T05:53:17.679Z,1015.56
2019-01-11T05:54:17.698Z,1015.51
2019-01-11T05:55:17.771Z,1015.54
2019-01-11T05:56:17.736Z,1015.53
2019-01-11T05:57:17.766Z,1015.53
2019-01-11T05:58:17.789Z,1015.55
2019-01-11T05:59:17.800Z,1015.49
2019-01-11T06:00:17.824Z,1015.48
2019-01-11T06:01:17.847Z,1015.49
2019-01-11T06:02:17.867Z,1015.46
2019-01-11T06:03:17.890Z,1015.47
2019-01-11T06:04:17.912Z,1015.49
2019-01-11T06:05:17.929Z,1015.43
2019-01-11T06:06:17.956Z,1015.51
2019-01-11T06:07:17.974Z,1015.50
2019-01-11T06:08:17.995Z,1015.54
2019-01-11T06:09:18.017Z,1015.50
2019-01-11T06:10:18.039Z,1015.52
2019-01-11T06:11:18.059Z,1015.56
2019-01-11T06:12:18.083Z,1015.59
2019-01-11T06:13:18.105Z,1015.57
2019-01-11T06:14:18.127Z,1015.58
2019-01-11T06:15:18.147Z,1015.58
2019-01-11T06:16:18.167Z,1015.53
2019-01-11T06:17:18.189Z,1015.56
2019-01-11T06:18:18.211Z,1015.62
2019-01-11T06:19:18.234Z,1015.56
2019-01-11T06:20:18.265Z,1015.58
2019-01-11T06:21:18.276Z,1015.58
2019-01-11T06:22:18.297Z,1015.58
2019-01-11T06:23:18.321Z,1015.60
2019-01-11T06:24:18.342Z,1015.57
2019-01-11T06:25:18.365Z,1015.62
2019-01-11T06:26:18.387Z,1015.59
2019-01-11T06:27:18.407Z,1015.52
2019-01-11T06:28:18.427Z,1015.56
2019-01-11T06:29:18.450Z,1015.60
2019-01-11T06:30:18.477Z,1015.60
2019-01-11T06:31:18.496Z,1015.55
2019-01-11T06:32:18.515Z,1015.53
2019-01-11T06:33:18.543Z,1015.51
2019-01-11T06:34:18.571Z,1015.53
2019-01-11T06:35:18.585Z,1015.57
2019-01-11T06:36:18.601Z,1015.53
2019-01-11T06:37:18.625Z,1015.49
2019-01-11T06:38:18.646Z,1015.48
2019-01-11T06:39:18.665Z,1015.52
2019-01-11T06:40:18.689Z,1015.49
2019-01-11T06:41:18.711Z,1015.52
2019-01-11T06:42:18.733Z,1015.48
2019-01-11T06:43:18.754Z,1015.47
2019-01-11T06:44:18.774Z,1015.42
2019-01-11T06:45:18.796Z,1015.44
2019-01-11T06:46:18.827Z,1015.45
2019-01-11T06:47:18.838Z,1015.40
2019-01-11T06:48:18.877Z,1015.43
2019-01-11T06:49:18.923Z,1015.39
2019-01-11T06:50:18.955Z,1015.40
2019-01-11T06:51:18.925Z,1015.38
2019-01-11T06:52:18.949Z,1015.43
2019-01-11T06:53:18.970Z,1015.41
2019-01-11T06:54:18.994Z,1015.45
2019-01-11T06:55:19.016Z,1015.39
2019-01-11T06:56:19.034Z,1015.40
2019-01-11T06:57:19.055Z,1015.43
2019-01-11T06:58:19.079Z,1015.51
2019-01-11T06:59:19.101Z,1015.57
2019-01-11T07:00:19.122Z,1015.59
2019-01-11T07:01:19.144Z,1015.56
2019-01-11T07:02:19.204Z,1015.63
2019-01-11T07:03:19.187Z,1015.67
2019-01-11T07:04:19.210Z,1015.64
2019-01-11T07:05:19.228Z,1015.66
2019-01-11T07:06:19.251Z,1015.72
2019-01-11T07:07:19.274Z,1015.64
2019-01-11T07:08:19.296Z,1015.67
2019-01-11T07:09:19.318Z,1015.68
2019-01-11T07:10:19.338Z,1015.65
2019-01-11T07:11:19.360Z,1015.64
2019-01-11T07:12:19.384Z,1015.64
2019-01-11T07:13:19.404Z,1015.69
2019-01-11T07:14:19.423Z,1015.73
2019-01-11T07:15:19.448Z,1015.69
2019-01-11T07:16:19.469Z,1015.69
2019-01-11T07:17:19.492Z,1015.74
2019-01-11T07:18:19.511Z,1015.68
2019-01-11T07:19:19.535Z,1015.63
2019-01-11T07:20:19.556Z,1015.68
2019-01-11T07:21:19.576Z,1015.66
2019-01-11T07:22:19.602Z,1015.64
2019-01-11T07:23:19.620Z,1015.69
2019-01-11T07:24:19.645Z,1015.70
2019-01-11T07:25:19.664Z,1015.67
2019-01-11T07:26:19.688Z,1015.65
2019-01-11T07:27:19.708Z,1015.58
2019-01-11T07:28:19.731Z,1015.66
2019-01-11T07:29:19.751Z,1015.61
2019-01-11T07:30:19.774Z,1015.60
2019-01-11T07:31:19.802Z,1015.58
2019-01-11T07:32:19.817Z,1015.61
2019-01-11T07:33:19.843Z,1015.64
2019-01-11T07:34:19.861Z,1015.62
2019-01-11T07:35:19.882Z,1015.59
2019-01-11T07:36:19.905Z,1015.55
2019-01-11T07:37:19.927Z,1015.51
2019-01-11T07:38:19.948Z,1015.56
2019-01-11T07:39:19.972Z,1015.56
2019-01-11T07:40:19.992Z,1015.50
2019-01-11T07:41:20.014Z,1015.50
2019-01-11T07:42:20.041Z,1015.46
2019-01-11T07:43:20.059Z,1015.48
2019-01-11T07:44:20.080Z,1015.47
2019-01-11T07:45:20.104Z,1015.53
2019-01-11T07:46:20.126Z,1015.51
2019-01-11T07:47:20.146Z,1015.53
2019-01-11T07:48:20.169Z,1015.54
2019-01-11T07:49:23.193Z,1015.59
2019-01-11T07:50:20.214Z,1015.61
2019-01-11T07:51:20.239Z,1015.58
2019-01-11T07:52:20.254Z,1015.67
2019-01-11T07:53:20.276Z,1015.65
2019-01-11T07:54:20.305Z,1015.69
2019-01-11T07:55:20.320Z,1015.73
2019-01-11T07:56:20.344Z,1015.64
2019-01-11T07:57:20.365Z,1015.64
2019-01-11T07:58:20.387Z,1015.58
2019-01-11T07:59:20.407Z,1015.59
2019-01-11T08:00:20.432Z,1015.55
2019-01-11T08:01:20.454Z,1015.61
2019-01-11T08:02:20.474Z,1015.66
2019-01-11T08:03:20.497Z,1015.61
2019-01-11T08:04:20.517Z,1015.63
2019-01-11T08:05:20.538Z,1015.66
2019-01-11T08:06:20.563Z,1015.62
2019-01-11T08:07:20.586Z,1015.56
2019-01-11T08:08:20.605Z,1015.61
2019-01-11T08:09:20.629Z,1015.58
2019-01-11T08:10:20.650Z,1015.56
2019-01-11T08:11:20.672Z,1015.56
2019-01-11T08:12:20.700Z,1015.57
2019-01-11T08:13:20.715Z,1015.60
2019-01-11T08:14:20.791Z,1015.64
2019-01-11T08:15:20.759Z,1015.68
2019-01-11T08:16:20.781Z,1015.68
2019-01-11T08:17:20.805Z,1015.69
2019-01-11T08:18:20.826Z,1015.70
2019-01-11T08:19:20.847Z,1015.73
2019-01-11T08:20:20.870Z,1015.72
2019-01-11T08:21:20.896Z,1015.71
2019-01-11T08:22:20.915Z,1015.68
2019-01-11T08:23:20.936Z,1015.64
2019-01-11T08:24:20.964Z,1015.61
2019-01-11T08:25:20.983Z,1015.62
2019-01-11T08:26:21.006Z,1015.66
2019-01-11T08:27:21.026Z,1015.67
2019-01-11T08:28:21.047Z,1015.69
2019-01-11T08:29:21.071Z,1015.61
2019-01-11T08:30:21.095Z,1015.64
2019-01-11T08:31:21.116Z,1015.58
2019-01-11T08:32:21.137Z,1015.61
2019-01-11T08:33:21.165Z,1015.68
2019-01-11T08:34:21.181Z,1015.66
2019-01-11T08:35:21.205Z,1015.67
2019-01-11T08:36:21.226Z,1015.66
2019-01-11T08:37:21.248Z,1015.71
2019-01-11T08:38:21.269Z,1015.67
2019-01-11T08:39:21.293Z,1015.57
2019-01-11T08:40:21.313Z,1015.66
2019-01-11T08:41:21.335Z,1015.66
2019-01-11T08:42:21.360Z,1015.70
2019-01-11T08:43:21.383Z,1015.67
2019-01-11T08:44:21.403Z,1015.72
2019-01-11T08:45:21.426Z,1015.66
2019-01-11T08:46:21.449Z,1015.65
2019-01-11T08:47:21.475Z,1015.62
2019-01-11T08:48:21.495Z,1015.57
2019-01-11T08:49:21.513Z,1015.55
2019-01-11T08:50:21.539Z,1015.63
2019-01-11T08:51:21.559Z,1015.58
2019-01-11T08:52:21.582Z,1015.62
2019-01-11T08:53:21.602Z,1015.58
2019-01-11T08:54:21.624Z,1015.57
2019-01-11T08:55:21.646Z,1015.52
2019-01-11T08:56:21.670Z,1015.57
2019-01-11T08:57:21.693Z,1015.55
2019-01-11T08:58:21.712Z,1015.54
2019-01-11T08:59:21.735Z,1015.51
2019-01-11T09:00:21.758Z,1015.48
2019-01-11T09:01:21.782Z,1015.51
2019-01-11T09:02:21.805Z,1015.51
2019-01-11T09:03:21.825Z,1015.48
2019-01-11T09:04:21.848Z,1015.51
2019-01-11T09:05:21.869Z,1015.45
2019-01-11T09:06:21.893Z,1015.43
2019-01-11T09:07:21.913Z,1015.37
2019-01-11T09:08:21.938Z,1015.43
2019-01-11T09:09:21.957Z,1015.33
2019-01-11T09:10:22.958Z,1015.38
2019-01-11T09:11:22.003Z,1015.37
2019-01-11T09:12:22.027Z,1015.36
2019-01-11T09:13:22.048Z,1015.39
2019-01-11T09:14:22.069Z,1015.34
2019-01-11T09:15:22.095Z,1015.33
2019-01-11T09:16:22.116Z,1015.29
2019-01-11T09:17:22.138Z,1015.26
2019-01-11T09:18:22.159Z,1015.31
2019-01-11T09:19:22.181Z,1015.36
2019-01-11T09:20:22.203Z,1015.38
2019-01-11T09:21:22.226Z,1015.39
2019-01-11T09:22:22.247Z,1015.43
2019-01-11T09:23:22.268Z,1015.47
2019-01-11T09:24:22.290Z,1015.45
2019-01-11T09:25:22.313Z,1015.47
2019-01-11T09:26:22.338Z,1015.49
2019-01-11T09:27:22.357Z,1015.43
2019-01-11T09:28:22.379Z,1015.47
2019-01-11T09:29:22.404Z,1015.47
2019-01-11T09:30:22.424Z,1015.42
2019-01-11T09:31:22.446Z,1015.45
2019-01-11T09:32:22.468Z,1015.36
2019-01-11T09:33:22.493Z,1015.41
2019-01-11T09:34:22.516Z,1015.43
2019-01-11T09:35:22.535Z,1015.48
2019-01-11T09:36:22.560Z,1015.50
2019-01-11T09:37:22.580Z,1015.49
2019-01-11T09:38:22.604Z,1015.52
2019-01-11T09:39:22.625Z,1015.52
2019-01-11T09:40:22.649Z,1015.52
2019-01-11T09:41:22.671Z,1015.55
2019-01-11T09:42:22.694Z,1015.52
2019-01-11T09:43:22.714Z,1015.48
2019-01-11T09:44:22.743Z,1015.43
2019-01-11T09:45:22.760Z,1015.41
2019-01-11T09:46:22.784Z,1015.44
2019-01-11T09:47:22.806Z,1015.40
2019-01-11T09:48:22.826Z,1015.45
2019-01-11T09:49:22.849Z,1015.47
2019-01-11T09:50:22.871Z,1015.43
2019-01-11T09:51:22.893Z,1015.44
2019-01-11T09:52:22.918Z,1015.43
2019-01-11T09:53:22.939Z,1015.46
2019-01-11T09:54:22.961Z,1015.46
2019-01-11T09:55:22.985Z,1015.51
2019-01-11T09:56:23.006Z,1015.47
2019-01-11T09:57:23.041Z,1015.52
2019-01-11T09:58:23.051Z,1015.52
2019-01-11T09:59:23.074Z,1015.41
2019-01-11T10:00:23.101Z,1015.43
2019-01-11T10:01:23.125Z,1015.41
2019-01-11T10:02:23.141Z,1015.40
2019-01-11T10:03:23.165Z,1015.41
2019-01-11T10:04:23.188Z,1015.39
2019-01-11T10:05:23.209Z,1015.43
2019-01-11T10:06:23.233Z,1015.45
2019-01-11T10:07:23.253Z,1015.41
2019-01-11T10:08:23.276Z,1015.48
2019-01-11T10:09:23.301Z,1015.47
2019-01-11T10:10:23.324Z,1015.44
2019-01-11T10:11:23.344Z,1015.46
2019-01-11T10:12:23.368Z,1015.45
2019-01-11T10:13:23.389Z,1015.44
2019-01-11T10:14:23.414Z,1015.46
2019-01-11T10:15:23.436Z,1015.40
2019-01-11T10:16:23.774Z,1015.38
2019-01-11T10:17:23.479Z,1015.39
2019-01-11T10:18:23.505Z,1015.39
2019-01-11T10:19:23.528Z,1015.37
2019-01-11T10:20:23.552Z,1015.38
2019-01-11T10:21:24.093Z,1015.34
2019-01-11T10:22:23.594Z,1015.33
2019-01-11T10:23:23.617Z,1015.29
2019-01-11T10:24:23.639Z,1015.27
2019-01-11T10:25:23.666Z,1015.24
2019-01-11T10:26:23.686Z,1015.22
2019-01-11T10:27:23.707Z,1015.21
2019-01-11T10:28:23.734Z,1015.23
2019-01-11T10:29:23.753Z,1015.23
2019-01-11T10:30:23.790Z,1015.26
2019-01-11T10:31:23.871Z,1015.26
2019-01-11T10:32:23.822Z,1015.23
2019-01-11T10:33:23.882Z,1015.23
2019-01-11T10:34:23.868Z,1015.18
2019-01-11T10:35:23.892Z,1015.20
2019-01-11T10:36:23.917Z,1015.23
2019-01-11T10:37:23.936Z,1015.27
2019-01-11T10:38:23.961Z,1015.23
2019-01-11T10:39:23.980Z,1015.26
2019-01-11T10:40:24.006Z,1015.31
2019-01-11T10:41:24.030Z,1015.30
2019-01-11T10:42:24.053Z,1015.27
2019-01-11T10:43:24.073Z,1015.25
2019-01-11T10:44:24.097Z,1015.24
2019-01-11T10:45:24.120Z,1015.26
2019-01-11T10:46:24.151Z,1015.29
2019-01-11T10:47:24.169Z,1015.24
2019-01-11T10:48:24.191Z,1015.23
2019-01-11T10:49:24.215Z,1015.19
2019-01-11T10:50:24.236Z,1015.26
2019-01-11T10:51:28.135Z,1015.27
2019-01-11T10:52:24.283Z,1015.23
2019-01-11T10:53:24.307Z,1015.28
2019-01-11T10:54:24.333Z,1015.21
2019-01-11T10:55:24.353Z,1015.24
2019-01-11T10:56:24.375Z,1015.25
2019-01-11T10:57:24.402Z,1015.20
2019-01-11T10:58:24.423Z,1015.21
2019-01-11T10:59:24.445Z,1015.19
2019-01-11T11:00:24.469Z,1015.17
2019-01-11T11:01:24.493Z,1015.14
2019-01-11T11:02:24.516Z,1015.11
2019-01-11T11:03:24.538Z,1015.12
2019-01-11T11:04:24.562Z,1015.12
2019-01-11T11:05:24.583Z,1015.09
2019-01-11T11:06:24.607Z,1015.15
2019-01-11T11:07:24.631Z,1015.08
2019-01-11T11:08:24.655Z,1015.11
2019-01-11T11:09:24.680Z,1015.10
2019-01-11T11:10:24.702Z,1015.09
2019-01-11T11:11:24.724Z,1015.07
2019-01-11T11:12:24.749Z,1015.09
2019-01-11T11:13:24.772Z,1015.07
2019-01-11T11:14:24.795Z,1015.09
2019-01-11T11:15:24.817Z,1015.09
2019-01-11T11:16:24.841Z,1015.04
2019-01-11T11:17:24.866Z,1015.06
2019-01-11T11:18:24.891Z,1015.04
2019-01-11T11:19:24.909Z,1015.09
2019-01-11T11:20:24.936Z,1015.03
2019-01-11T11:21:24.958Z,1015.04
2019-01-11T11:22:24.982Z,1015.04
2019-01-11T11:23:25.004Z,1014.97
2019-01-11T11:24:25.037Z,1014.95
2019-01-11T11:25:25.052Z,1014.97
2019-01-11T11:26:25.075Z,1014.93
2019-01-11T11:27:25.096Z,1014.94
2019-01-11T11:28:25.120Z,1014.91
2019-01-11T11:29:25.146Z,1014.91
2019-01-11T11:30:25.169Z,1014.95
2019-01-11T11:31:25.190Z,1014.89
2019-01-11T11:32:25.213Z,1014.85
2019-01-11T11:33:25.237Z,1014.83
2019-01-11T11:34:25.263Z,1014.82
2019-01-11T11:35:25.284Z,1014.81
2019-01-11T11:36:25.312Z,1014.81
2019-01-11T11:37:25.331Z,1014.79
2019-01-11T11:38:25.357Z,1014.78
2019-01-11T11:39:25.379Z,1014.77
2019-01-11T11:40:25.403Z,1014.81
2019-01-11T11:41:25.428Z,1014.79
2019-01-11T11:42:25.451Z,1014.74
2019-01-11T11:43:25.474Z,1014.78
2019-01-11T11:44:25.504Z,1014.70
2019-01-11T11:45:25.521Z,1014.74
2019-01-11T11:46:25.545Z,1014.70
2019-01-11T11:47:25.568Z,1014.63
2019-01-11T11:48:25.590Z,1014.68
2019-01-11T11:49:25.617Z,1014.63
2019-01-11T11:50:25.641Z,1014.64
2019-01-11T11:51:25.662Z,1014.59
2019-01-11T11:52:25.694Z,1014.62
2019-01-11T11:53:25.711Z,1014.57
2019-01-11T11:54:25.733Z,1014.59
2019-01-11T11:55:25.754Z,1014.53
2019-01-11T11:56:25.780Z,1014.49
2019-01-11T11:57:25.804Z,1014.48
2019-01-11T11:58:25.828Z,1014.49
2019-01-11T11:59:25.852Z,1014.48
2019-01-11T12:00:25.873Z,1014.46
2019-01-11T12:01:25.898Z,1014.43
2019-01-11T12:02:25.921Z,1014.41
2019-01-11T12:03:25.944Z,1014.38
2019-01-11T12:04:25.970Z,1014.41
2019-01-11T12:05:25.991Z,1014.44